createdAt,value
2023-05-10T00:00:31.832Z,24.52
2023-05-10T00:02:37.182Z,24.55
2023-05-10T00:04:43.128Z,24.56
2023-05-10T00:06:48.272Z,24.54
2023-05-10T00:08:53.406Z,24.53
2023-05-10T00:10:58.519Z,24.51
2023-05-10T00:13:03.572Z,24.5
2023-05-10T00:15:08.845Z,24.5
2023-05-10T00:17:13.939Z,24.46
2023-05-10T00:19:19.671Z,24.45
2023-05-10T00:21:24.870Z,24.41
2023-05-10T00:23:30.137Z,24.41
2023-05-10T00:25:35.261Z,24.4
2023-05-10T00:27:40.314Z,24.35
2023-05-10T00:29:45.412Z,24.34
2023-05-10T00:31:50.655Z,24.35
2023-05-10T00:33:55.919Z,24.33
2023-05-10T00:36:01.100Z,24.32
2023-05-10T00:38:06.285Z,24.32
2023-05-10T00:40:11.441Z,24.3
2023-05-10T00:42:16.657Z,24.31
2023-05-10T00:44:21.852Z,24.26
2023-05-10T00:46:27.001Z,24.27
2023-05-10T00:48:32.707Z,24.24
2023-05-10T00:50:37.801Z,24.24
2023-05-10T00:52:42.865Z,24.24
2023-05-10T00:54:48.114Z,24.25
2023-05-10T00:56:53.778Z,24.23
2023-05-10T00:58:58.904Z,24.23
2023-05-10T01:01:04.105Z,24.21
2023-05-10T01:03:09.415Z,24.2
2023-05-10T01:05:15.808Z,24.21
2023-05-10T01:07:21.345Z,24.2
2023-05-10T01:09:26.406Z,24.2
2023-05-10T01:11:31.567Z,24.19
2023-05-10T01:13:36.636Z,24.2
2023-05-10T01:15:41.850Z,24.18
2023-05-10T01:17:47.216Z,24.17
2023-05-10T01:19:52.505Z,24.16
2023-05-10T01:21:57.568Z,24.16
2023-05-10T01:24:02.717Z,24.16
2023-05-10T01:26:07.822Z,24.14
2023-05-10T01:28:12.901Z,24.16
2023-05-10T01:30:18.018Z,24.15
2023-05-10T01:32:24.498Z,24.17
2023-05-10T01:34:29.689Z,24.14
2023-05-10T01:36:34.685Z,24.15
2023-05-10T01:38:39.755Z,24.14
2023-05-10T01:40:44.917Z,24.11
2023-05-10T01:42:50.029Z,24.09
2023-05-10T01:44:55.123Z,24.08
2023-05-10T01:47:00.293Z,24.09
2023-05-10T01:49:05.555Z,24.08
2023-05-10T01:51:10.695Z,24.08
2023-05-10T01:53:15.773Z,24.08
2023-05-10T01:55:20.855Z,24.05
2023-05-10T01:57:26.103Z,24.07
2023-05-10T01:59:31.197Z,24.05
2023-05-10T02:01:36.266Z,24.05
2023-05-10T02:03:41.392Z,24.05
2023-05-10T02:05:46.873Z,24.03
2023-05-10T02:07:52.106Z,24.04
2023-05-10T02:09:57.213Z,24.04
2023-05-10T02:12:02.363Z,24.04
2023-05-10T02:14:07.504Z,24.02
2023-05-10T02:16:12.716Z,24.02
2023-05-10T02:18:18.080Z,24
2023-05-10T02:20:23.192Z,24
2023-05-10T02:22:28.304Z,24
2023-05-10T02:24:33.447Z,23.98
2023-05-10T02:26:38.579Z,23.99
2023-05-10T02:28:43.589Z,23.98
2023-05-10T02:30:48.652Z,23.97
2023-05-10T02:32:53.713Z,23.95
2023-05-10T02:34:58.859Z,23.94
2023-05-10T02:37:04.148Z,23.9
2023-05-10T02:39:09.259Z,23.9
2023-05-10T02:41:14.882Z,23.91
2023-05-10T02:43:20.108Z,23.9
2023-05-10T02:45:25.220Z,23.88
2023-05-10T02:47:30.431Z,23.89
2023-05-10T02:49:35.673Z,23.87
2023-05-10T02:51:40.716Z,23.86
2023-05-10T02:53:45.757Z,23.85
2023-05-10T02:55:50.932Z,23.86
2023-05-10T02:57:56.024Z,23.86
2023-05-10T03:00:01.077Z,23.84
2023-05-10T03:02:06.205Z,23.83
2023-05-10T03:04:11.386Z,23.81
2023-05-10T03:06:16.581Z,23.81
2023-05-10T03:08:22.084Z,23.79
2023-05-10T03:10:27.121Z,23.78
2023-05-10T03:12:32.234Z,23.79
2023-05-10T03:14:37.248Z,23.8
2023-05-10T03:16:44.728Z,23.82
2023-05-10T03:18:49.953Z,23.82
2023-05-10T03:20:55.021Z,23.83
2023-05-10T03:23:00.067Z,23.83
2023-05-10T03:25:05.282Z,23.85
2023-05-10T03:27:10.453Z,23.84
2023-05-10T03:29:15.558Z,23.84
2023-05-10T03:31:20.748Z,23.83
2023-05-10T03:33:31.528Z,23.84
2023-05-10T03:35:36.601Z,23.83
2023-05-10T03:37:41.745Z,23.83
2023-05-10T03:39:46.831Z,23.84
2023-05-10T03:41:51.851Z,23.81
2023-05-10T03:43:56.938Z,23.8
2023-05-10T03:46:02.133Z,23.79
2023-05-10T03:48:07.355Z,23.8
2023-05-10T03:50:12.649Z,23.83
2023-05-10T03:52:18.721Z,23.8
2023-05-10T03:54:23.792Z,23.79
2023-05-10T03:56:28.875Z,23.77
2023-05-10T03:58:33.936Z,23.77
2023-05-10T04:00:39.088Z,23.77
2023-05-10T04:02:45.955Z,23.77
2023-05-10T04:04:51.556Z,23.74
2023-05-10T04:06:56.686Z,23.71
2023-05-10T04:09:01.863Z,23.71
2023-05-10T04:11:07.236Z,23.69
2023-05-10T04:13:12.409Z,23.69
2023-05-10T04:15:17.649Z,23.7
2023-05-10T04:17:22.723Z,23.7
2023-05-10T04:19:27.991Z,23.7
2023-05-10T04:21:33.060Z,23.7
2023-05-10T04:23:38.204Z,23.69
2023-05-10T04:25:43.303Z,23.71
2023-05-10T04:27:48.515Z,23.71
2023-05-10T04:29:53.700Z,23.7
2023-05-10T04:31:58.808Z,23.68
2023-05-10T04:34:04.069Z,23.67
2023-05-10T04:36:09.129Z,23.67
2023-05-10T04:38:14.433Z,23.68
2023-05-10T04:40:19.522Z,23.67
2023-05-10T04:42:24.653Z,23.67
2023-05-10T04:44:29.698Z,23.67
2023-05-10T04:46:34.832Z,23.65
2023-05-10T04:48:40.226Z,23.64
2023-05-10T04:50:45.386Z,23.65
2023-05-10T04:52:50.477Z,23.64
2023-05-10T04:54:57.049Z,23.66
2023-05-10T04:57:02.114Z,23.65
2023-05-10T04:59:07.232Z,23.65
2023-05-10T05:01:12.376Z,23.64
2023-05-10T05:03:17.679Z,23.64
2023-05-10T05:05:23.502Z,23.67
2023-05-10T05:07:28.572Z,23.66
2023-05-10T05:09:33.673Z,23.66
2023-05-10T05:11:38.940Z,23.65
2023-05-10T05:13:44.135Z,23.62
2023-05-10T05:15:49.299Z,23.61
2023-05-10T05:17:54.623Z,23.65
2023-05-10T05:20:00.106Z,23.63
2023-05-10T05:22:05.264Z,23.66
2023-05-10T05:24:10.430Z,23.66
2023-05-10T05:26:15.555Z,23.66
2023-05-10T05:28:20.748Z,23.65
2023-05-10T05:30:25.931Z,23.64
2023-05-10T05:32:31.029Z,23.62
2023-05-10T05:34:36.301Z,23.68
2023-05-10T05:36:41.364Z,23.74
2023-05-10T05:38:46.630Z,23.78
2023-05-10T05:40:52.306Z,23.83
2023-05-10T05:42:57.520Z,23.89
2023-05-10T05:45:02.624Z,23.95
2023-05-10T05:47:07.728Z,24.02
2023-05-10T05:49:12.899Z,24.07
2023-05-10T05:51:17.984Z,24.1
2023-05-10T05:53:23.146Z,24.13
2023-05-10T05:55:28.250Z,24.15
2023-05-10T05:57:33.354Z,24.19
2023-05-10T05:59:38.413Z,24.21
2023-05-10T06:01:43.596Z,24.22
2023-05-10T06:03:50.405Z,24.23
2023-05-10T06:05:57.689Z,24.24
2023-05-10T06:08:02.808Z,24.23
2023-05-10T06:10:07.867Z,24.23
2023-05-10T06:12:13.032Z,24.25
2023-05-10T06:14:18.135Z,24.25
2023-05-10T06:16:23.214Z,24.27
2023-05-10T06:18:28.529Z,24.26
2023-05-10T06:20:33.600Z,24.26
2023-05-10T06:22:38.755Z,24.26
2023-05-10T06:24:43.855Z,24.28
2023-05-10T06:26:48.893Z,24.27
2023-05-10T06:28:54.021Z,24.26
2023-05-10T06:30:59.246Z,24.26
2023-05-10T06:33:04.619Z,24.29
2023-05-10T06:35:10.925Z,24.29
2023-05-10T06:37:16.090Z,24.25
2023-05-10T06:39:21.311Z,24.2
2023-05-10T06:41:26.437Z,24.13
2023-05-10T06:43:31.517Z,24.15
2023-05-10T06:45:36.606Z,24.2
2023-05-10T06:47:41.730Z,24.24
2023-05-10T06:49:46.881Z,24.28
2023-05-10T06:51:51.967Z,24.34
2023-05-10T06:53:57.041Z,24.36
2023-05-10T06:56:02.141Z,24.37
2023-05-10T06:58:08.336Z,24.38
2023-05-10T07:00:13.449Z,24.38
2023-05-10T07:02:19.180Z,24.38
2023-05-10T07:04:24.501Z,24.41
2023-05-10T07:06:33.634Z,24.43
2023-05-10T07:08:38.944Z,24.47
2023-05-10T07:10:44.035Z,24.45
2023-05-10T07:12:49.178Z,24.35
2023-05-10T07:14:54.455Z,24.19
2023-05-10T07:16:59.600Z,24.06
2023-05-10T07:19:04.793Z,23.95
2023-05-10T07:21:09.960Z,23.88
2023-05-10T07:23:15.250Z,23.83
2023-05-10T07:25:20.421Z,23.73
2023-05-10T07:27:25.494Z,23.68
2023-05-10T07:29:30.551Z,23.65
2023-05-10T07:31:35.617Z,23.66
2023-05-10T07:33:40.757Z,23.63
2023-05-10T07:35:45.838Z,23.67
2023-05-10T07:37:50.886Z,23.67
2023-05-10T07:39:56.073Z,23.66
2023-05-10T07:42:01.173Z,23.67
2023-05-10T07:44:06.319Z,23.68
2023-05-10T07:46:11.459Z,23.65
2023-05-10T07:48:16.850Z,23.65
2023-05-10T07:50:22.000Z,23.63
2023-05-10T07:52:27.156Z,23.57
2023-05-10T07:54:32.264Z,23.57
2023-05-10T07:56:37.535Z,23.52
2023-05-10T07:58:43.210Z,23.51
2023-05-10T08:00:48.438Z,23.52
2023-05-10T08:02:53.753Z,23.6
2023-05-10T08:04:59.255Z,23.62
2023-05-10T08:07:04.334Z,23.65
2023-05-10T08:09:09.364Z,23.7
2023-05-10T08:11:14.669Z,23.74
2023-05-10T08:13:19.877Z,23.74
2023-05-10T08:15:24.947Z,23.76
2023-05-10T08:17:30.148Z,23.78
2023-05-10T08:19:35.566Z,23.78
2023-05-10T08:21:40.665Z,23.82
2023-05-10T08:23:45.770Z,23.87
2023-05-10T08:25:50.968Z,23.86
2023-05-10T08:27:56.258Z,23.87
2023-05-10T08:30:01.369Z,23.89
2023-05-10T08:32:09.199Z,23.9
2023-05-10T08:34:14.273Z,23.92
2023-05-10T08:36:19.442Z,23.93
2023-05-10T08:38:24.632Z,23.97
2023-05-10T08:40:30.170Z,23.98
2023-05-10T08:42:35.221Z,24
2023-05-10T08:44:40.334Z,24.01
2023-05-10T08:46:45.444Z,24.03
2023-05-10T08:48:50.854Z,24.05
2023-05-10T08:50:56.065Z,24.07
2023-05-10T08:53:01.174Z,24.09
2023-05-10T08:55:06.216Z,24.1
2023-05-10T08:57:11.322Z,24.11
2023-05-10T08:59:16.604Z,24.12
2023-05-10T09:01:21.754Z,24.15
2023-05-10T09:03:27.146Z,24.17
2023-05-10T09:05:32.404Z,24.17
2023-05-10T09:07:37.750Z,24.17
2023-05-10T09:09:43.011Z,24.22
2023-05-10T09:11:48.042Z,24.2
2023-05-10T09:13:53.123Z,24.2
2023-05-10T09:16:02.078Z,24.25
2023-05-10T09:18:27.335Z,24.3
2023-05-10T09:20:33.329Z,24.33
2023-05-10T09:22:38.399Z,24.35
2023-05-10T09:24:43.520Z,24.37
2023-05-10T09:26:48.637Z,24.39
2023-05-10T09:28:53.776Z,24.43
2023-05-10T09:30:59.018Z,24.47
2023-05-10T09:33:04.254Z,24.5
2023-05-10T09:35:09.575Z,24.52
2023-05-10T09:37:14.663Z,24.54
2023-05-10T09:39:19.735Z,24.54
2023-05-10T09:41:25.178Z,24.53
2023-05-10T09:43:30.366Z,24.52
2023-05-10T09:45:37.149Z,24.51
2023-05-10T09:47:43.401Z,24.57
2023-05-10T09:49:48.691Z,24.57
2023-05-10T09:51:53.861Z,24.57
2023-05-10T09:53:59.066Z,24.57
2023-05-10T09:56:04.160Z,24.54
2023-05-10T09:58:09.227Z,24.53
2023-05-10T10:00:14.827Z,24.52
2023-05-10T10:02:20.063Z,24.52
2023-05-10T10:04:25.347Z,24.5
2023-05-10T10:06:30.844Z,24.49
2023-05-10T10:08:36.126Z,24.5
2023-05-10T10:10:41.257Z,24.52
2023-05-10T10:12:46.541Z,24.53
2023-05-10T10:14:51.625Z,24.58
2023-05-10T10:17:07.085Z,24.63
2023-05-10T10:19:13.291Z,24.65
2023-05-10T10:21:18.656Z,24.65
2023-05-10T10:23:23.743Z,24.67
2023-05-10T10:25:29.026Z,24.72
2023-05-10T10:27:34.187Z,24.71
2023-05-10T10:29:39.314Z,24.72
2023-05-10T10:31:44.799Z,24.74
2023-05-10T10:33:50.077Z,24.77
2023-05-10T10:35:55.096Z,24.76
2023-05-10T10:38:00.274Z,24.74
2023-05-10T10:40:05.649Z,24.75
2023-05-10T10:42:10.877Z,24.77
2023-05-10T10:44:16.049Z,24.8
2023-05-10T10:46:21.279Z,24.85
2023-05-10T10:48:26.518Z,24.89
2023-05-10T10:50:31.644Z,24.96
2023-05-10T10:52:36.736Z,25.01
2023-05-10T10:54:41.949Z,25.05
2023-05-10T10:56:47.063Z,25.08
2023-05-10T10:58:52.156Z,25.13
2023-05-10T11:00:57.738Z,25.17
2023-05-10T11:03:02.991Z,25.2
2023-05-10T11:05:08.201Z,25.21
2023-05-10T11:07:13.263Z,25.2
2023-05-10T11:09:18.459Z,25.23
2023-05-10T11:11:23.590Z,25.24
2023-05-10T11:13:28.638Z,25.25
2023-05-10T11:15:33.687Z,25.27
2023-05-10T11:17:38.805Z,25.31
2023-05-10T11:19:44.171Z,25.33
2023-05-10T11:21:49.285Z,25.35
2023-05-10T11:23:54.490Z,25.34
2023-05-10T11:25:59.524Z,25.35
2023-05-10T11:28:04.602Z,25.37
2023-05-10T11:30:09.712Z,25.41
2023-05-10T11:32:14.855Z,25.38
2023-05-10T11:34:19.972Z,25.39
2023-05-10T11:36:25.100Z,25.4
2023-05-10T11:38:30.233Z,25.45
2023-05-10T11:40:35.280Z,25.42
2023-05-10T11:42:40.379Z,25.43
2023-05-10T11:44:45.474Z,25.44
2023-05-10T11:46:50.620Z,25.39
2023-05-10T11:48:55.963Z,25.39
2023-05-10T11:51:01.034Z,25.37
2023-05-10T11:53:06.286Z,25.39
2023-05-10T11:55:11.445Z,25.44
2023-05-10T11:57:16.536Z,25.43
2023-05-10T11:59:21.697Z,25.39
2023-05-10T12:01:26.810Z,25.37
2023-05-10T12:03:32.075Z,25.37
2023-05-10T12:05:37.949Z,25.32
2023-05-10T12:07:45.955Z,25.29
2023-05-10T12:09:51.120Z,25.3
2023-05-10T12:11:56.286Z,25.32
2023-05-10T12:14:01.386Z,25.35
2023-05-10T12:16:06.466Z,25.38
2023-05-10T12:18:11.869Z,25.38
2023-05-10T12:20:17.465Z,25.42
2023-05-10T12:22:23.453Z,25.45
2023-05-10T12:24:28.529Z,25.48
2023-05-10T12:26:33.721Z,25.49
2023-05-10T12:28:38.749Z,25.51
2023-05-10T12:30:43.783Z,25.54
2023-05-10T12:32:48.840Z,25.56
2023-05-10T12:34:53.964Z,25.57
2023-05-10T12:36:59.027Z,25.57
2023-05-10T12:39:04.186Z,25.58
2023-05-10T12:41:09.319Z,25.6
2023-05-10T12:43:14.711Z,25.6
2023-05-10T12:45:20.045Z,25.59
2023-05-10T12:47:25.169Z,25.59
2023-05-10T12:49:30.425Z,25.59
2023-05-10T12:51:35.618Z,25.57
2023-05-10T12:53:42.535Z,25.55
2023-05-10T12:55:52.575Z,25.54
2023-05-10T12:57:57.749Z,25.52
2023-05-10T13:00:02.956Z,25.53
2023-05-10T13:02:08.179Z,25.53
2023-05-10T13:04:13.390Z,25.51
2023-05-10T13:06:18.935Z,25.5
2023-05-10T13:08:24.174Z,25.48
2023-05-10T13:10:29.249Z,25.48
2023-05-10T13:12:34.402Z,25.49
2023-05-10T13:14:39.574Z,25.49
2023-05-10T13:16:44.834Z,25.49
2023-05-10T13:18:50.363Z,25.49
2023-05-10T13:20:55.828Z,25.5
2023-05-10T13:23:01.269Z,25.5
2023-05-10T13:25:06.429Z,25.5
2023-05-10T13:27:11.664Z,25.51
2023-05-10T13:29:16.776Z,25.51
2023-05-10T13:31:22.150Z,25.52
2023-05-10T13:33:27.511Z,25.51
2023-05-10T13:35:32.639Z,25.53
2023-05-10T13:37:38.314Z,25.56
2023-05-10T13:39:43.583Z,25.57
2023-05-10T13:41:48.830Z,25.6
2023-05-10T13:43:53.983Z,25.61
2023-05-10T13:45:59.130Z,25.63
2023-05-10T13:48:04.477Z,25.58
2023-05-10T13:50:09.816Z,25.49
2023-05-10T13:52:14.980Z,25.44
2023-05-10T13:54:20.377Z,25.38
2023-05-10T13:56:25.580Z,25.32
2023-05-10T13:58:30.673Z,25.28
2023-05-10T14:00:35.823Z,25.27
2023-05-10T14:02:41.005Z,25.27
2023-05-10T14:04:46.368Z,25.28
2023-05-10T14:06:51.525Z,25.27
2023-05-10T14:08:56.656Z,25.27
2023-05-10T14:11:01.778Z,25.28
2023-05-10T14:13:06.955Z,25.25
2023-05-10T14:15:12.088Z,25.25
2023-05-10T14:17:17.505Z,25.23
2023-05-10T14:19:23.098Z,25.19
2023-05-10T14:21:28.255Z,25.14
2023-05-10T14:23:33.600Z,25.1
2023-05-10T14:25:38.712Z,25.07
2023-05-10T14:27:43.862Z,25.05
2023-05-10T14:29:49.312Z,25.02
2023-05-10T14:31:54.570Z,24.98
2023-05-10T14:33:59.949Z,24.96
2023-05-10T14:36:05.108Z,24.96
2023-05-10T14:38:10.246Z,24.93
2023-05-10T14:40:15.375Z,24.93
2023-05-10T14:42:20.523Z,24.91
2023-05-10T14:44:25.681Z,24.9
2023-05-10T14:46:30.994Z,24.9
2023-05-10T14:48:36.359Z,24.92
2023-05-10T14:50:41.508Z,24.94
2023-05-10T14:52:46.718Z,24.95
2023-05-10T14:54:51.908Z,25
2023-05-10T14:56:57.096Z,25.03
2023-05-10T14:59:02.207Z,25.05
2023-05-10T15:01:08.605Z,25.06
2023-05-10T15:03:14.900Z,25.05
2023-05-10T15:05:21.931Z,25.01
2023-05-10T15:07:28.421Z,25.03
2023-05-10T15:09:33.606Z,25.04
2023-05-10T15:11:38.888Z,25.07
2023-05-10T15:13:44.095Z,25.07
2023-05-10T15:15:49.229Z,25.09
2023-05-10T15:17:54.514Z,25.08
2023-05-10T15:19:59.953Z,25.07
2023-05-10T15:22:05.152Z,25.05
2023-05-10T15:24:10.398Z,25.06
2023-05-10T15:26:15.687Z,25.08
2023-05-10T15:28:20.854Z,25.08
2023-05-10T15:30:25.943Z,25.08
2023-05-10T15:32:31.280Z,25.05
2023-05-10T15:34:37.123Z,25.04
2023-05-10T15:36:42.661Z,25.05
2023-05-10T15:38:47.805Z,25.04
2023-05-10T15:40:52.946Z,25.11
2023-05-10T15:42:58.037Z,25.16
2023-05-10T15:45:03.208Z,25.22
2023-05-10T15:47:08.462Z,25.31
2023-05-10T15:49:13.837Z,25.33
2023-05-10T15:51:19.189Z,25.39
2023-05-10T15:53:24.451Z,25.41
2023-05-10T15:55:29.899Z,25.45
2023-05-10T15:57:36.729Z,25.46
2023-05-10T15:59:43.257Z,25.47
2023-05-10T16:01:48.815Z,25.48
2023-05-10T16:03:54.322Z,25.48
2023-05-10T16:05:59.652Z,25.49
2023-05-10T16:08:06.154Z,25.51
2023-05-10T16:10:11.594Z,25.53
2023-05-10T16:12:17.138Z,25.5
2023-05-10T16:14:22.619Z,25.51
2023-05-10T16:16:27.921Z,25.51
2023-05-10T16:18:33.722Z,25.51
2023-05-10T16:20:39.442Z,25.53
2023-05-10T16:22:44.788Z,25.53
2023-05-10T16:24:50.338Z,25.53
2023-05-10T16:26:55.647Z,25.55
2023-05-10T16:29:00.989Z,25.55
2023-05-10T16:31:06.803Z,25.56
2023-05-10T16:33:13.745Z,25.58
2023-05-10T16:35:19.411Z,25.57
2023-05-10T16:37:24.663Z,25.58
2023-05-10T16:39:30.128Z,25.58
2023-05-10T16:41:36.095Z,25.59
2023-05-10T16:43:41.356Z,25.59
2023-05-10T16:45:46.596Z,25.6
2023-05-10T16:47:52.041Z,25.62
2023-05-10T16:49:58.627Z,25.65
2023-05-10T16:52:04.125Z,25.65
2023-05-10T16:54:10.565Z,25.67
2023-05-10T16:56:16.257Z,25.7
2023-05-10T16:58:21.510Z,25.72
2023-05-10T17:00:27.946Z,25.72
2023-05-10T17:02:33.309Z,25.71
2023-05-10T17:04:39.594Z,25.71
2023-05-10T17:06:46.019Z,25.71
2023-05-10T17:08:51.393Z,25.66
2023-05-10T17:10:56.834Z,25.66
2023-05-10T17:13:02.116Z,25.68
2023-05-10T17:15:08.085Z,25.67
2023-05-10T17:17:14.834Z,25.64
2023-05-10T17:19:20.130Z,25.63
2023-05-10T17:21:30.181Z,25.62
2023-05-10T17:23:35.590Z,25.61
2023-05-10T17:25:41.578Z,25.58
2023-05-10T17:27:47.133Z,25.52
2023-05-10T17:29:52.418Z,25.47
2023-05-10T17:31:58.251Z,25.37
2023-05-10T17:34:05.610Z,25.32
2023-05-10T17:36:11.162Z,25.29
2023-05-10T17:38:17.057Z,25.24
2023-05-10T17:40:23.052Z,25.19
2023-05-10T17:42:30.008Z,25.16
2023-05-10T17:44:35.267Z,25.18
2023-05-10T17:46:40.538Z,25.26
2023-05-10T17:48:46.067Z,25.33
2023-05-10T17:50:51.509Z,25.38
2023-05-10T17:52:56.917Z,25.44
2023-05-10T17:55:04.239Z,25.49
2023-05-10T17:57:10.896Z,25.53
2023-05-10T17:59:17.441Z,25.58
2023-05-10T18:01:24.284Z,25.65
2023-05-10T18:03:29.877Z,25.7
2023-05-10T18:05:38.844Z,25.78
2023-05-10T18:07:44.271Z,25.84
2023-05-10T18:09:50.486Z,25.89
2023-05-10T18:11:58.521Z,25.86
2023-05-10T18:14:03.995Z,25.75
2023-05-10T18:16:09.399Z,25.63
2023-05-10T18:18:17.497Z,25.51
2023-05-10T18:20:23.552Z,25.43
2023-05-10T18:22:28.938Z,25.34
2023-05-10T18:24:39.404Z,25.28
2023-05-10T18:26:45.292Z,25.22
2023-05-10T18:28:53.459Z,25.16
2023-05-10T18:30:59.213Z,25.1
2023-05-10T18:33:05.514Z,25.05
2023-05-10T18:35:10.904Z,25
2023-05-10T18:37:17.412Z,24.96
2023-05-10T18:39:23.227Z,24.93
2023-05-10T18:41:28.426Z,24.87
2023-05-10T18:43:33.667Z,24.85
2023-05-10T18:45:40.918Z,24.78
2023-05-10T18:47:46.962Z,24.78
2023-05-10T18:49:52.439Z,24.76
2023-05-10T18:52:00.606Z,24.71
2023-05-10T18:54:07.648Z,24.73
2023-05-10T18:56:13.030Z,24.8
2023-05-10T18:58:20.352Z,24.9
2023-05-10T19:00:25.648Z,24.95
2023-05-10T19:02:32.103Z,25.01
2023-05-10T19:04:38.828Z,25.06
2023-05-10T19:06:46.919Z,25.06
2023-05-10T19:08:54.293Z,25.1
2023-05-10T19:11:00.184Z,25.12
2023-05-10T19:13:06.675Z,25.12
2023-05-10T19:15:13.120Z,25.12
2023-05-10T19:17:20.373Z,25.14
2023-05-10T19:19:32.351Z,25.16
2023-05-10T19:21:41.062Z,25.19
2023-05-10T19:23:49.188Z,25.22
2023-05-10T19:25:56.706Z,25.24
2023-05-10T19:28:05.469Z,25.24
2023-05-10T19:30:12.061Z,25.26
2023-05-10T19:32:17.400Z,25.26
2023-05-10T19:34:22.608Z,25.29
2023-05-10T19:36:27.880Z,25.28
2023-05-10T19:38:33.186Z,25.27
2023-05-10T19:40:38.324Z,25.26
2023-05-10T19:42:43.871Z,25.25
2023-05-10T19:44:49.220Z,25.27
2023-05-10T19:46:54.494Z,25.27
2023-05-10T19:48:59.900Z,25.27
2023-05-10T19:51:06.959Z,25.26
2023-05-10T19:53:15.019Z,25.27
2023-05-10T19:55:20.153Z,25.27
2023-05-10T19:57:25.385Z,25.26
2023-05-10T19:59:30.591Z,25.24
2023-05-10T20:01:35.876Z,25.26
2023-05-10T20:03:41.311Z,25.26
2023-05-10T20:05:46.721Z,25.25
2023-05-10T20:07:51.953Z,25.27
2023-05-10T20:09:57.036Z,25.28
2023-05-10T20:12:02.152Z,25.29
2023-05-10T20:14:07.253Z,25.32
2023-05-10T20:16:12.379Z,25.32
2023-05-10T20:18:17.681Z,25.3
2023-05-10T20:20:22.943Z,25.27
2023-05-10T20:22:28.067Z,25.23
2023-05-10T20:24:33.187Z,25.25
2023-05-10T20:26:38.236Z,25.23
2023-05-10T20:28:43.311Z,25.21
2023-05-10T20:30:48.856Z,25.24
2023-05-10T20:32:56.844Z,25.22
2023-05-10T20:35:02.157Z,25.2
2023-05-10T20:37:07.410Z,25.17
2023-05-10T20:39:12.507Z,25.19
2023-05-10T20:41:17.724Z,25.19
2023-05-10T20:43:22.834Z,25.19
2023-05-10T20:45:27.945Z,25.16
2023-05-10T20:47:33.172Z,25.2
2023-05-10T20:49:38.436Z,25.15
2023-05-10T20:51:43.927Z,25.17
2023-05-10T20:53:49.005Z,25.21
2023-05-10T20:55:54.157Z,25.24
2023-05-10T20:57:59.362Z,25.21
2023-05-10T21:00:07.538Z,25.2
2023-05-10T21:02:12.660Z,25.16
2023-05-10T21:04:17.735Z,25.2
2023-05-10T21:06:22.935Z,25.21
2023-05-10T21:08:28.000Z,25.24
2023-05-10T21:10:33.200Z,25.29
2023-05-10T21:12:38.247Z,25.32
2023-05-10T21:14:43.309Z,25.35
2023-05-10T21:16:48.501Z,25.37
2023-05-10T21:18:53.736Z,25.38
2023-05-10T21:20:59.169Z,25.37
2023-05-10T21:23:04.325Z,25.36
2023-05-10T21:25:10.355Z,25.37
2023-05-10T21:27:15.536Z,25.37
2023-05-10T21:29:20.627Z,25.36
2023-05-10T21:31:25.854Z,25.36
2023-05-10T21:33:31.180Z,25.37
2023-05-10T21:35:36.345Z,25.36
2023-05-10T21:37:41.577Z,25.35
2023-05-10T21:39:46.795Z,25.37
2023-05-10T21:41:51.869Z,25.37
2023-05-10T21:43:57.057Z,25.38
2023-05-10T21:46:02.140Z,25.37
2023-05-10T21:48:07.737Z,25.37
2023-05-10T21:50:13.121Z,25.37
2023-05-10T21:52:18.329Z,25.35
2023-05-10T21:54:23.459Z,25.35
2023-05-10T21:56:28.503Z,25.35
2023-05-10T21:58:33.575Z,25.34
2023-05-10T22:00:38.709Z,25.34
2023-05-10T22:02:43.939Z,25.34
2023-05-10T22:04:49.650Z,25.35
2023-05-10T22:06:54.777Z,25.36
2023-05-10T22:08:59.864Z,25.35
2023-05-10T22:11:05.021Z,25.33
2023-05-10T22:13:10.161Z,25.33
2023-05-10T22:15:15.319Z,25.34
2023-05-10T22:17:20.370Z,25.31
2023-05-10T22:19:25.575Z,25.29
2023-05-10T22:21:30.641Z,25.29
2023-05-10T22:23:35.686Z,25.28
2023-05-10T22:25:40.764Z,25.28
2023-05-10T22:27:46.041Z,25.27
2023-05-10T22:29:51.198Z,25.27
2023-05-10T22:31:56.386Z,25.24
2023-05-10T22:34:01.596Z,25.26
2023-05-10T22:36:06.822Z,25.27
2023-05-10T22:38:11.926Z,25.26
2023-05-10T22:40:17.135Z,25.28
2023-05-10T22:42:22.906Z,25.27
2023-05-10T22:44:28.058Z,25.26
2023-05-10T22:46:33.201Z,25.28
2023-05-10T22:48:38.458Z,25.28
2023-05-10T22:50:43.551Z,25.29
2023-05-10T22:52:48.651Z,25.28
2023-05-10T22:54:53.717Z,25.31
2023-05-10T22:56:58.772Z,25.31
2023-05-10T22:59:03.854Z,25.34
2023-05-10T23:01:09.070Z,25.32
2023-05-10T23:03:14.528Z,25.32
2023-05-10T23:05:19.735Z,25.31
2023-05-10T23:07:25.030Z,25.31
2023-05-10T23:09:30.304Z,25.29
2023-05-10T23:11:35.559Z,25.27
2023-05-10T23:13:40.777Z,25.27
2023-05-10T23:15:45.906Z,25.27
2023-05-10T23:17:51.248Z,25.28
2023-05-10T23:19:56.780Z,25.29
2023-05-10T23:22:02.003Z,25.29
2023-05-10T23:24:07.136Z,25.29
2023-05-10T23:26:12.654Z,25.3
2023-05-10T23:28:17.911Z,25.32
2023-05-10T23:30:23.195Z,25.31
2023-05-10T23:32:28.352Z,25.29
2023-05-10T23:34:33.767Z,25.27
2023-05-10T23:36:38.993Z,25.27
2023-05-10T23:38:44.228Z,25.27
2023-05-10T23:40:49.438Z,25.27
2023-05-10T23:42:54.599Z,25.28
2023-05-10T23:44:59.874Z,25.26
2023-05-10T23:47:05.029Z,25.26
2023-05-10T23:49:10.193Z,25.24
2023-05-10T23:51:15.361Z,25.25
2023-05-10T23:53:20.616Z,25.23
2023-05-10T23:55:25.755Z,25.24
2023-05-10T23:57:31.093Z,25.22
2023-05-10T23:59:36.266Z,25.2
